createdAt,value
2019-01-24T00:02:01.214Z,21.70
2019-01-24T00:04:30.848Z,22.47
2019-01-24T00:07:00.607Z,24.10
2019-01-24T00:09:30.752Z,24.17
2019-01-24T00:12:00.391Z,21.50
2019-01-24T00:14:30.005Z,22.33
2019-01-24T00:16:59.826Z,20.30
2019-01-24T00:19:32.764Z,20.60
2019-01-24T00:22:02.446Z,21.53
2019-01-24T00:24:32.144Z,21.03
2019-01-24T00:27:07.815Z,24.70
2019-01-24T00:29:37.422Z,21.67
2019-01-24T00:32:07.026Z,22.60
2019-01-24T00:34:36.642Z,20.10
2019-01-24T00:37:07.113Z,23.97
2019-01-24T00:39:36.747Z,22.50
2019-01-24T00:42:06.432Z,24.67
2019-01-24T00:44:36.124Z,23.57
2019-01-24T00:47:05.827Z,22.52
2019-01-24T00:49:35.560Z,25.02
2019-01-24T00:52:05.332Z,23.03
2019-01-24T00:54:34.840Z,17.37
2019-01-24T01:00:39.298Z,20.63
2019-01-24T01:03:09.070Z,21.42
2019-01-24T01:05:38.594Z,22.33
2019-01-24T01:08:08.318Z,23.70
2019-01-24T01:10:38.001Z,24.32
2019-01-24T01:13:07.727Z,25.77
2019-01-24T01:15:37.465Z,23.22
2019-01-24T01:18:07.401Z,24.37
2019-01-24T01:20:37.211Z,21.27
2019-01-24T01:23:06.777Z,19.05
2019-01-24T01:25:36.601Z,21.57
2019-01-24T01:28:09.712Z,21.25
2019-01-24T01:30:41.494Z,22.62
2019-01-24T01:33:11.187Z,21.55
2019-01-24T01:35:40.993Z,24.32
2019-01-24T01:38:10.677Z,22.80
2019-01-24T01:40:40.289Z,22.67
2019-01-24T01:43:13.819Z,21.53
2019-01-24T01:45:43.406Z,25.23
2019-01-24T01:48:13.121Z,22.60
2019-01-24T01:50:42.845Z,21.42
2019-01-24T01:53:12.621Z,23.55
2019-01-24T01:55:42.279Z,23.02
2019-01-24T01:58:11.979Z,23.18
2019-01-24T02:00:41.670Z,18.95
2019-01-24T02:03:11.313Z,24.70
2019-01-24T02:05:40.963Z,25.72
2019-01-24T02:08:12.161Z,23.65
2019-01-24T02:10:41.805Z,24.83
2019-01-24T02:13:11.426Z,23.47
2019-01-24T02:15:41.127Z,24.72
2019-01-24T02:18:10.941Z,25.40
2019-01-24T02:20:40.649Z,26.57
2019-01-24T02:23:10.361Z,25.30
2019-01-24T02:25:40.051Z,24.77
2019-01-24T02:28:09.579Z,18.62
2019-01-24T02:30:39.251Z,26.50
2019-01-24T02:33:08.824Z,26.20
2019-01-24T02:35:38.503Z,23.62
2019-01-24T02:38:08.135Z,25.43
2019-01-24T02:40:37.837Z,24.95
2019-01-24T02:43:08.531Z,23.77
2019-01-24T02:45:41.954Z,27.17
2019-01-24T02:48:11.672Z,24.40
2019-01-24T02:50:41.239Z,24.07
2019-01-24T02:53:10.883Z,23.55
2019-01-24T02:55:40.477Z,25.17
2019-01-24T02:58:10.047Z,23.45
2019-01-24T03:00:41.158Z,23.62
2019-01-24T03:03:10.720Z,24.45
2019-01-24T03:05:40.305Z,24.15
2019-01-24T03:08:09.847Z,25.55
2019-01-24T03:10:39.518Z,23.45
2019-01-24T03:13:09.129Z,19.90
2019-01-24T03:15:38.844Z,22.62
2019-01-24T03:18:08.625Z,21.70
2019-01-24T03:20:38.512Z,21.33
2019-01-24T03:23:08.276Z,23.25
2019-01-24T03:25:37.855Z,19.40
2019-01-24T03:28:07.538Z,23.70
2019-01-24T03:30:37.087Z,21.12
2019-01-24T03:33:06.763Z,24.47
2019-01-24T03:35:36.830Z,25.37
2019-01-24T03:38:06.864Z,21.70
2019-01-24T03:40:36.496Z,23.10
2019-01-24T03:43:06.244Z,24.65
2019-01-24T03:45:35.880Z,23.70
2019-01-24T03:48:06.153Z,23.57
2019-01-24T03:50:35.866Z,21.93
2019-01-24T03:53:05.476Z,22.83
2019-01-24T03:55:35.350Z,19.30
2019-01-24T03:58:08.826Z,24.37
2019-01-24T04:00:38.670Z,25.75
2019-01-24T04:03:08.266Z,23.57
2019-01-24T04:05:37.832Z,20.23
2019-01-24T04:08:07.532Z,22.87
2019-01-24T04:10:37.277Z,19.57
2019-01-24T04:13:07.197Z,18.37
2019-01-24T04:15:36.806Z,21.75
2019-01-24T04:18:08.796Z,22.30
2019-01-24T04:20:38.170Z,19.23
2019-01-24T04:23:07.656Z,18.17
2019-01-24T04:25:37.299Z,21.82
2019-01-24T04:28:06.896Z,24.77
2019-01-24T04:30:38.901Z,20.17
2019-01-24T04:33:08.656Z,23.67
2019-01-24T04:35:38.418Z,24.05
2019-01-24T04:38:07.993Z,22.15
2019-01-24T04:50:51.364Z,23.00
2019-01-24T04:53:25.385Z,22.87
2019-01-24T04:55:55.245Z,24.80
2019-01-24T04:58:24.785Z,22.85
2019-01-24T05:00:54.368Z,23.10
2019-01-24T05:03:24.021Z,23.67
2019-01-24T05:05:53.665Z,24.75
2019-01-24T05:08:23.379Z,22.90
2019-01-24T05:10:53.032Z,26.37
2019-01-24T05:13:22.749Z,20.57
2019-01-24T05:15:52.329Z,22.67
2019-01-24T05:18:22.122Z,26.27
2019-01-24T05:20:51.747Z,23.77
2019-01-24T05:23:27.475Z,24.65
2019-01-24T05:25:57.128Z,25.90
2019-01-24T05:28:26.929Z,24.75
2019-01-24T05:30:57.043Z,23.67
2019-01-24T05:33:27.679Z,24.12
2019-01-24T05:35:57.362Z,17.20
2019-01-24T05:38:27.030Z,22.52
2019-01-24T05:40:56.705Z,22.52
2019-01-24T05:43:26.227Z,23.47
2019-01-24T05:45:55.927Z,20.02
2019-01-24T05:48:25.667Z,26.50
2019-01-24T05:50:55.426Z,20.72
2019-01-24T05:53:25.130Z,20.05
2019-01-24T05:55:54.724Z,26.82
2019-01-24T05:58:24.445Z,26.82
2019-01-24T06:00:55.272Z,23.38
2019-01-24T06:03:25.000Z,24.00
2019-01-24T06:05:57.189Z,20.40
2019-01-24T06:08:26.863Z,25.68
2019-01-24T06:10:57.614Z,21.55
2019-01-24T06:13:27.468Z,26.07
2019-01-24T06:15:57.218Z,22.58
2019-01-24T06:18:27.002Z,19.57
2019-01-24T06:20:56.915Z,24.65
2019-01-24T06:23:26.582Z,19.70
2019-01-24T06:32:36.880Z,24.37
2019-01-24T06:35:06.676Z,20.25
2019-01-24T06:37:36.423Z,22.20
2019-01-24T06:40:07.440Z,22.77
2019-01-24T06:42:37.191Z,21.40
2019-01-24T06:45:10.262Z,23.38
2019-01-24T06:47:40.057Z,21.77
2019-01-24T06:50:11.692Z,22.80
2019-01-24T06:52:41.290Z,22.30
2019-01-24T06:55:13.246Z,20.90
2019-01-24T06:57:42.890Z,22.27
2019-01-24T07:00:15.289Z,21.48
2019-01-24T07:02:44.940Z,23.22
2019-01-24T07:05:14.603Z,23.92
2019-01-24T07:07:44.115Z,24.98
2019-01-24T07:10:16.017Z,24.75
2019-01-24T07:12:46.565Z,22.70
2019-01-24T07:15:18.499Z,25.43
2019-01-24T07:17:48.154Z,25.82
2019-01-24T07:20:18.441Z,24.63
2019-01-24T07:22:48.967Z,22.87
2019-01-24T07:25:20.567Z,22.58
2019-01-24T07:27:50.107Z,20.23
2019-01-24T07:30:19.835Z,22.85
2019-01-24T07:32:49.452Z,23.02
2019-01-24T07:35:19.081Z,23.62
2019-01-24T07:37:48.656Z,22.60
2019-01-24T07:40:18.645Z,22.73
2019-01-24T07:42:48.491Z,22.37
2019-01-24T07:45:33.751Z,21.25
2019-01-24T07:48:03.382Z,20.10
2019-01-24T07:50:33.140Z,21.30
2019-01-24T07:53:02.673Z,22.50
2019-01-24T07:55:32.462Z,20.35
2019-01-24T07:58:02.064Z,20.72
2019-01-24T08:00:31.605Z,20.52
2019-01-24T08:03:01.196Z,20.65
2019-01-24T08:05:30.899Z,20.57
2019-01-24T08:08:00.407Z,20.52
2019-01-24T08:10:30.006Z,19.95
2019-01-24T08:12:59.538Z,18.77
2019-01-24T08:15:29.343Z,20.27
2019-01-24T08:17:58.940Z,18.77
2019-01-24T08:20:28.581Z,20.23
2019-01-24T08:22:58.335Z,19.67
2019-01-24T08:25:27.866Z,19.75
2019-01-24T08:27:57.543Z,21.77
2019-01-24T08:30:29.519Z,19.62
2019-01-24T08:32:59.134Z,19.05
2019-01-24T08:35:28.728Z,17.60
2019-01-24T08:37:58.567Z,19.90
2019-01-24T08:40:28.163Z,14.83
2019-01-24T08:42:57.771Z,21.90
2019-01-24T08:45:30.169Z,18.60
2019-01-24T08:48:12.362Z,18.37
2019-01-24T08:50:42.002Z,18.60
2019-01-24T08:53:11.612Z,16.97
2019-01-24T08:55:43.073Z,19.07
2019-01-24T09:01:45.302Z,15.72
2019-01-24T09:04:14.946Z,18.80
2019-01-24T09:06:44.522Z,16.27
2019-01-24T09:09:14.194Z,19.67
2019-01-24T09:11:43.876Z,19.80
2019-01-24T09:14:13.484Z,20.08
2019-01-24T09:16:43.108Z,18.65
2019-01-24T09:19:12.666Z,15.15
2019-01-24T09:21:42.327Z,23.27
2019-01-24T09:24:12.020Z,19.00
2019-01-24T09:26:41.845Z,18.57
2019-01-24T09:29:11.649Z,20.27
2019-01-24T09:34:49.444Z,22.47
2019-01-24T09:37:19.677Z,22.35
2019-01-24T09:39:49.273Z,18.33
2019-01-24T09:42:18.950Z,20.63
2019-01-24T09:44:48.482Z,22.13
2019-01-24T09:47:18.037Z,18.87
2019-01-24T09:49:47.671Z,14.60
2019-01-24T09:52:17.338Z,19.93
2019-01-24T09:54:46.903Z,18.53
2019-01-24T09:57:18.224Z,18.97
2019-01-24T09:59:47.837Z,17.47
2019-01-24T10:02:17.423Z,17.70
2019-01-24T10:04:46.981Z,17.00
2019-01-24T10:07:16.583Z,21.90
2019-01-24T10:09:46.079Z,19.57
2019-01-24T10:12:15.647Z,22.50
2019-01-24T10:14:45.201Z,22.07
2019-01-24T10:17:14.899Z,21.17
2019-01-24T10:19:44.617Z,19.20
2019-01-24T10:22:14.219Z,19.40
2019-01-24T10:24:43.835Z,16.53
2019-01-24T10:27:14.402Z,21.20
2019-01-24T10:29:44.075Z,16.43
2019-01-24T10:32:13.705Z,22.13
2019-01-24T10:34:43.343Z,21.63
2019-01-24T10:37:12.893Z,16.00
2019-01-24T10:39:42.502Z,16.80
2019-01-24T10:42:12.220Z,18.93
2019-01-24T10:44:41.766Z,23.20
2019-01-24T10:47:11.489Z,22.63
2019-01-24T10:49:41.079Z,20.43
2019-01-24T10:52:10.718Z,20.70
2019-01-24T10:54:40.367Z,20.63
2019-01-24T10:57:09.973Z,20.03
2019-01-24T10:59:40.355Z,19.00
2019-01-24T11:02:09.892Z,18.20
2019-01-24T11:04:39.598Z,15.53
2019-01-24T11:07:09.261Z,22.27
2019-01-24T11:09:38.746Z,23.20
2019-01-24T11:12:08.270Z,22.57
2019-01-24T11:14:37.770Z,21.23
2019-01-24T11:17:07.462Z,20.30
2019-01-24T11:19:37.117Z,20.00
2019-01-24T11:22:06.578Z,19.30
2019-01-24T11:24:36.220Z,21.87
2019-01-24T11:27:05.848Z,20.47
2019-01-24T11:29:35.532Z,21.97
2019-01-24T11:32:05.223Z,22.17
2019-01-24T11:34:34.924Z,21.97
2019-01-24T11:37:04.609Z,20.00
2019-01-24T11:39:34.267Z,22.70
2019-01-24T11:42:03.975Z,22.53
2019-01-24T11:44:33.597Z,19.43
2019-01-24T11:47:03.259Z,20.87
2019-01-24T11:49:32.894Z,23.33
2019-01-24T11:52:02.572Z,22.53
2019-01-24T11:54:32.077Z,21.50
2019-01-24T11:57:01.618Z,20.13
2019-01-24T11:59:31.134Z,20.63
2019-01-24T12:02:00.759Z,19.90
2019-01-24T12:04:33.924Z,19.47
2019-01-24T12:07:04.223Z,22.23
2019-01-24T12:09:33.973Z,22.27
2019-01-24T12:12:03.663Z,22.50
2019-01-24T12:14:33.164Z,20.23
2019-01-24T12:17:02.932Z,21.53
2019-01-24T12:19:32.546Z,17.17
2019-01-24T12:22:02.127Z,22.20
2019-01-24T12:24:31.644Z,22.20
2019-01-24T12:27:01.262Z,20.93
2019-01-24T12:29:30.883Z,21.43
2019-01-24T12:32:00.636Z,21.10
2019-01-24T12:34:30.318Z,21.87
2019-01-24T12:36:59.994Z,23.10
2019-01-24T12:39:29.618Z,18.00
2019-01-24T12:41:59.343Z,17.97
2019-01-24T12:44:29.122Z,18.93
2019-01-24T12:46:58.942Z,22.50
2019-01-24T12:49:28.566Z,20.97
2019-01-24T12:51:58.307Z,23.30
2019-01-24T12:54:27.969Z,19.63
2019-01-24T12:56:57.649Z,19.47
2019-01-24T12:59:27.354Z,23.63
2019-01-24T13:01:56.891Z,22.20
2019-01-24T13:04:26.565Z,21.43
2019-01-24T13:06:56.255Z,22.97
2019-01-24T13:09:25.823Z,18.77
2019-01-24T13:11:55.505Z,19.13
2019-01-24T13:14:25.117Z,20.67
2019-01-24T13:16:54.804Z,16.97
2019-01-24T13:19:24.511Z,11.23
2019-01-24T13:21:54.005Z,20.43
2019-01-24T13:24:23.797Z,20.83
2019-01-24T13:26:53.499Z,17.43
2019-01-24T13:29:23.117Z,20.67
2019-01-24T13:31:52.903Z,23.57
2019-01-24T13:34:22.611Z,18.73
2019-01-24T13:36:52.249Z,23.83
2019-01-24T13:39:21.909Z,22.47
2019-01-24T13:41:51.548Z,20.53
2019-01-24T13:44:21.240Z,21.87
2019-01-24T13:46:50.891Z,22.77
2019-01-24T13:49:20.473Z,18.47
2019-01-24T13:51:49.975Z,18.77
2019-01-24T13:54:19.703Z,22.53
2019-01-24T13:56:49.466Z,23.73
2019-01-24T13:59:19.102Z,22.57
2019-01-24T14:01:48.836Z,23.47
2019-01-24T14:04:27.267Z,21.90
2019-01-24T14:06:56.828Z,23.87
2019-01-24T14:09:26.606Z,22.80
2019-01-24T14:11:56.275Z,20.53
2019-01-24T14:14:25.871Z,24.50
2019-01-24T14:16:55.677Z,24.63
2019-01-24T14:19:25.306Z,18.40
2019-01-24T14:21:55.069Z,19.57
2019-01-24T14:24:24.708Z,19.27
2019-01-24T14:26:54.374Z,21.07
2019-01-24T14:29:23.964Z,24.00
2019-01-24T14:31:53.502Z,22.00
2019-01-24T14:34:23.094Z,18.87
2019-01-24T14:36:52.750Z,22.87
2019-01-24T14:39:22.367Z,20.53
2019-01-24T14:41:51.928Z,21.47
2019-01-24T14:44:21.502Z,22.70
2019-01-24T14:46:51.126Z,22.37
2019-01-24T14:49:20.871Z,23.20
2019-01-24T14:51:50.562Z,23.20
2019-01-24T14:54:20.161Z,23.57
2019-01-24T14:56:49.788Z,22.30
2019-01-24T14:59:19.370Z,24.57
2019-01-24T15:01:49.022Z,23.40
2019-01-24T15:04:18.706Z,23.13
2019-01-24T15:06:48.419Z,14.60
2019-01-24T15:09:18.035Z,22.53
2019-01-24T15:11:47.699Z,22.87
2019-01-24T15:14:17.457Z,19.53
2019-01-24T15:16:46.959Z,21.70
2019-01-24T15:19:16.501Z,24.23
2019-01-24T15:21:46.106Z,23.90
2019-01-24T15:24:15.706Z,22.37
2019-01-24T15:26:45.231Z,19.83
2019-01-24T15:29:14.777Z,22.83
2019-01-24T15:31:44.548Z,21.50
2019-01-24T15:34:14.166Z,22.03
2019-01-24T15:36:43.805Z,20.57
2019-01-24T15:39:13.503Z,22.50
2019-01-24T15:41:43.225Z,20.97
2019-01-24T15:44:12.813Z,18.83
2019-01-24T15:46:42.643Z,22.97
2019-01-24T15:49:12.349Z,20.00
2019-01-24T15:51:41.956Z,15.87
2019-01-24T15:54:11.641Z,20.07
2019-01-24T15:56:41.179Z,22.53
2019-01-24T15:59:10.718Z,22.90
2019-01-24T16:01:40.470Z,21.80
2019-01-24T16:04:12.007Z,25.33
2019-01-24T16:06:41.717Z,23.97
2019-01-24T16:09:11.449Z,23.77
2019-01-24T16:11:41.015Z,21.47
2019-01-24T16:14:10.543Z,21.93
2019-01-24T16:16:40.262Z,23.33
2019-01-24T16:19:10.040Z,21.90
2019-01-24T16:21:39.794Z,20.13
2019-01-24T16:24:09.567Z,19.87
2019-01-24T16:26:39.238Z,24.97
2019-01-24T16:29:08.908Z,23.10
2019-01-24T16:31:40.316Z,15.97
2019-01-24T16:34:10.186Z,19.90
2019-01-24T16:36:39.786Z,21.73
2019-01-24T16:39:10.318Z,17.20
2019-01-24T16:41:39.894Z,16.37
2019-01-24T16:44:09.496Z,22.33
2019-01-24T16:46:39.642Z,23.97
2019-01-24T16:49:09.912Z,19.60
2019-01-24T16:51:40.128Z,23.70
2019-01-24T16:54:10.375Z,21.10
2019-01-24T16:56:39.998Z,18.97
2019-01-24T16:59:09.784Z,23.73
2019-01-24T17:01:40.383Z,19.93
2019-01-24T17:04:10.280Z,21.77
2019-01-24T17:06:40.112Z,21.53
2019-01-24T17:09:11.408Z,23.17
2019-01-24T17:11:41.168Z,20.13
2019-01-24T17:14:10.776Z,14.33
2019-01-24T17:16:40.602Z,22.43
2019-01-24T17:19:10.282Z,22.43
2019-01-24T17:21:39.976Z,23.27
2019-01-24T17:24:09.650Z,23.37
2019-01-24T17:26:39.361Z,23.80
2019-01-24T17:29:08.975Z,24.27
2019-01-24T17:31:38.543Z,23.00
2019-01-24T17:34:12.495Z,17.77
2019-01-24T17:36:42.203Z,15.53
2019-01-24T17:39:12.944Z,25.77
2019-01-24T17:41:42.658Z,21.40
2019-01-24T17:44:12.335Z,17.77
2019-01-24T17:46:42.012Z,19.33
2019-01-24T17:49:11.818Z,21.80
2019-01-24T17:51:42.000Z,15.83
2019-01-24T17:54:11.593Z,13.47
2019-01-24T17:56:41.210Z,21.73
2019-01-24T17:59:10.845Z,19.67
2019-01-24T18:01:40.741Z,22.73
2019-01-24T18:04:10.405Z,17.93
2019-01-24T18:06:40.069Z,22.90
2019-01-24T18:09:09.658Z,23.83
2019-01-24T18:11:39.296Z,19.23
2019-01-24T18:14:08.955Z,20.80
2019-01-24T18:16:38.663Z,15.87
2019-01-24T18:19:08.174Z,22.37
2019-01-24T18:21:37.929Z,22.93
2019-01-24T18:24:07.707Z,25.80
2019-01-24T18:26:37.431Z,20.20
2019-01-24T18:29:07.092Z,25.13
2019-01-24T18:31:36.871Z,23.30
2019-01-24T18:34:06.579Z,27.23
2019-01-24T18:36:36.579Z,24.43
2019-01-24T18:39:10.257Z,23.30
2019-01-24T18:41:39.685Z,18.60
2019-01-24T18:44:09.349Z,22.80
2019-01-24T18:46:39.061Z,18.00
2019-01-24T18:49:08.786Z,23.40
2019-01-24T18:51:38.555Z,23.63
2019-01-24T18:54:08.435Z,23.87
2019-01-24T19:06:29.438Z,19.67
2019-01-24T19:09:01.906Z,24.85
2019-01-24T19:11:31.754Z,21.80
2019-01-24T19:14:01.452Z,24.92
2019-01-24T19:16:31.181Z,18.47
2019-01-24T19:19:01.057Z,24.00
2019-01-24T19:21:30.890Z,24.20
2019-01-24T19:24:00.671Z,19.60
2019-01-24T19:26:30.380Z,24.97
2019-01-24T19:28:59.986Z,25.37
2019-01-24T19:31:29.632Z,30.10
2019-01-24T19:33:59.441Z,19.02
2019-01-24T19:36:30.900Z,17.50
2019-01-24T19:39:00.602Z,26.55
2019-01-24T19:41:30.358Z,25.97
2019-01-24T19:44:00.123Z,23.47
2019-01-24T19:46:29.908Z,24.63
2019-01-24T19:48:59.663Z,26.83
2019-01-24T19:51:29.510Z,25.17
2019-01-24T19:53:59.336Z,22.10
2019-01-24T19:56:29.195Z,27.90
2019-01-24T19:58:58.994Z,23.67
2019-01-24T20:01:28.706Z,22.65
2019-01-24T20:03:58.447Z,24.20
2019-01-24T20:06:28.237Z,28.40
2019-01-24T20:09:00.262Z,26.47
2019-01-24T20:11:30.438Z,26.33
2019-01-24T20:14:00.276Z,23.55
2019-01-24T20:16:30.192Z,25.82
2019-01-24T20:18:59.958Z,22.37
2019-01-24T20:21:29.743Z,25.17
2019-01-24T20:23:59.544Z,24.37
2019-01-24T20:26:29.144Z,21.20
2019-01-24T20:39:45.750Z,24.98
2019-01-24T20:42:15.431Z,23.85
2019-01-24T20:44:45.202Z,26.13
2019-01-24T20:47:14.934Z,24.35
2019-01-24T20:49:44.755Z,26.17
2019-01-24T20:52:14.534Z,21.17
2019-01-24T20:54:44.390Z,25.73
2019-01-24T20:57:14.086Z,22.40
2019-01-24T20:59:43.870Z,23.80
2019-01-24T21:02:13.653Z,18.77
2019-01-24T21:04:43.396Z,22.17
2019-01-24T21:07:13.102Z,28.17
2019-01-24T21:09:42.742Z,24.90
2019-01-24T21:12:12.450Z,21.23
2019-01-24T21:14:42.072Z,18.23
2019-01-24T21:17:11.933Z,26.43
2019-01-24T21:19:41.648Z,25.00
2019-01-24T21:22:13.758Z,20.30
2019-01-24T21:24:43.396Z,27.17
2019-01-24T21:27:13.040Z,37.63
2019-01-24T21:29:42.887Z,28.23
2019-01-24T21:32:12.704Z,27.22
2019-01-24T21:34:42.945Z,30.02
2019-01-24T21:37:12.722Z,32.90
2019-01-24T21:39:46.418Z,32.65
2019-01-24T21:42:16.113Z,31.05
2019-01-24T21:44:45.959Z,26.55
2019-01-24T21:47:15.600Z,30.80
2019-01-24T21:49:45.423Z,30.85
2019-01-24T21:52:15.366Z,28.17
2019-01-24T21:54:45.052Z,32.67
2019-01-24T21:57:14.795Z,25.73
2019-01-24T21:59:44.323Z,34.40
2019-01-24T22:02:14.139Z,30.25
2019-01-24T22:04:44.105Z,31.03
2019-01-24T22:07:14.045Z,27.82
2019-01-24T22:09:43.899Z,22.63
2019-01-24T22:12:13.739Z,30.75
2019-01-24T22:14:43.450Z,30.57
2019-01-24T22:17:13.204Z,28.07
2019-01-24T22:19:42.989Z,30.97
2019-01-24T22:22:12.642Z,30.25
2019-01-24T22:24:42.349Z,26.52
2019-01-24T22:31:39.174Z,29.72
2019-01-24T22:34:09.438Z,31.07
2019-01-24T22:36:40.974Z,29.52
2019-01-24T22:39:10.830Z,28.55
2019-01-24T22:41:40.579Z,26.23
2019-01-24T22:44:10.522Z,28.77
2019-01-24T22:46:40.375Z,29.45
2019-01-24T22:49:10.282Z,29.45
2019-01-24T22:51:40.261Z,28.75
2019-01-24T22:54:10.177Z,31.12
2019-01-24T22:56:40.061Z,31.57
2019-01-24T22:59:09.875Z,28.23
2019-01-24T23:01:51.117Z,31.20
2019-01-24T23:04:23.359Z,30.55
2019-01-24T23:06:53.159Z,29.18
2019-01-24T23:09:22.949Z,30.77
2019-01-24T23:11:52.562Z,32.33
2019-01-24T23:14:22.317Z,30.75
2019-01-24T23:16:52.107Z,29.23
2019-01-24T23:19:21.874Z,31.05
2019-01-24T23:21:51.647Z,32.90
2019-01-24T23:24:21.617Z,31.80
2019-01-24T23:26:51.355Z,33.28
2019-01-24T23:29:21.113Z,30.62
2019-01-24T23:31:50.885Z,30.35
2019-01-24T23:34:20.786Z,33.48
2019-01-24T23:36:50.756Z,28.77
2019-01-24T23:39:20.644Z,31.50
2019-01-24T23:41:50.446Z,31.30
2019-01-24T23:44:20.199Z,29.23
2019-01-24T23:46:49.890Z,32.03
2019-01-24T23:49:19.684Z,31.37
2019-01-24T23:51:49.643Z,31.30
2019-01-24T23:54:19.362Z,32.65
2019-01-24T23:56:49.112Z,31.62
2019-01-24T23:59:18.957Z,28.83
